sensor_id;sensor_type;location;lat;lon;timestamp;P1;durP1;ratioP1;P2;durP2;ratioP2
17844;SDS011;9047;53.486;10.218;2023-02-28T00:01:25;10.60;;;5.35;;
17844;SDS011;9047;53.486;10.218;2023-02-28T00:03:53;8.73;;;5.32;;
17844;SDS011;9047;53.486;10.218;2023-02-28T00:06:22;9.20;;;5.45;;
17844;SDS011;9047;53.486;10.218;2023-02-28T00:08:49;9.65;;;5.97;;
17844;SDS011;9047;53.486;10.218;2023-02-28T00:11:16;12.10;;;5.57;;
17844;SDS011;9047;53.486;10.218;2023-02-28T00:13:44;10.23;;;5.30;;
17844;SDS011;9047;53.486;10.218;2023-02-28T00:16:16;9.80;;;4.70;;
17844;SDS011;9047;53.486;10.218;2023-02-28T00:18:48;8.95;;;5.03;;
17844;SDS011;9047;53.486;10.218;2023-02-28T00:21:15;9.07;;;4.95;;
17844;SDS011;9047;53.486;10.218;2023-02-28T00:23:46;10.23;;;5.00;;
17844;SDS011;9047;53.486;10.218;2023-02-28T00:26:13;7.93;;;4.72;;
17844;SDS011;9047;53.486;10.218;2023-02-28T00:28:48;9.65;;;5.35;;
17844;SDS011;9047;53.486;10.218;2023-02-28T00:31:16;8.57;;;5.10;;
17844;SDS011;9047;53.486;10.218;2023-02-28T00:33:43;10.50;;;5.05;;
17844;SDS011;9047;53.486;10.218;2023-02-28T00:36:11;9.73;;;4.75;;
17844;SDS011;9047;53.486;10.218;2023-02-28T00:38:45;8.93;;;4.78;;
17844;SDS011;9047;53.486;10.218;2023-02-28T00:41:16;8.73;;;4.50;;
17844;SDS011;9047;53.486;10.218;2023-02-28T00:43:44;9.93;;;4.82;;
17844;SDS011;9047;53.486;10.218;2023-02-28T00:46:11;17.35;;;7.30;;
17844;SDS011;9047;53.486;10.218;2023-02-28T00:48:39;8.70;;;5.03;;
17844;SDS011;9047;53.486;10.218;2023-02-28T00:51:08;9.48;;;4.10;;
17844;SDS011;9047;53.486;10.218;2023-02-28T00:53:35;6.75;;;4.00;;
17844;SDS011;9047;53.486;10.218;2023-02-28T00:56:02;9.15;;;4.38;;
17844;SDS011;9047;53.486;10.218;2023-02-28T00:58:29;9.80;;;4.05;;
17844;SDS011;9047;53.486;10.218;2023-02-28T01:00:58;8.20;;;4.50;;
17844;SDS011;9047;53.486;10.218;2023-02-28T01:03:27;10.45;;;4.40;;
17844;SDS011;9047;53.486;10.218;2023-02-28T01:05:55;10.43;;;3.95;;
17844;SDS011;9047;53.486;10.218;2023-02-28T01:08:23;9.80;;;4.45;;
17844;SDS011;9047;53.486;10.218;2023-02-28T01:10:51;10.70;;;4.82;;
17844;SDS011;9047;53.486;10.218;2023-02-28T01:13:19;9.10;;;4.80;;
17844;SDS011;9047;53.486;10.218;2023-02-28T01:15:48;7.88;;;3.95;;
17844;SDS011;9047;53.486;10.218;2023-02-28T01:18:17;9.75;;;4.70;;
17844;SDS011;9047;53.486;10.218;2023-02-28T01:20:45;8.25;;;4.22;;
17844;SDS011;9047;53.486;10.218;2023-02-28T01:23:16;9.07;;;4.45;;
17844;SDS011;9047;53.486;10.218;2023-02-28T01:25:43;7.65;;;3.78;;
17844;SDS011;9047;53.486;10.218;2023-02-28T01:28:10;8.15;;;3.83;;
17844;SDS011;9047;53.486;10.218;2023-02-28T01:30:37;9.95;;;3.92;;
17844;SDS011;9047;53.486;10.218;2023-02-28T01:33:05;8.10;;;4.15;;
17844;SDS011;9047;53.486;10.218;2023-02-28T01:35:35;9.50;;;3.70;;
17844;SDS011;9047;53.486;10.218;2023-02-28T01:38:04;7.35;;;3.63;;
17844;SDS011;9047;53.486;10.218;2023-02-28T01:40:35;6.78;;;3.97;;
17844;SDS011;9047;53.486;10.218;2023-02-28T01:43:02;9.73;;;4.30;;
17844;SDS011;9047;53.486;10.218;2023-02-28T01:45:30;6.35;;;3.70;;
17844;SDS011;9047;53.486;10.218;2023-02-28T01:48:02;8.13;;;3.42;;
17844;SDS011;9047;53.486;10.218;2023-02-28T01:50:34;7.38;;;3.92;;
17844;SDS011;9047;53.486;10.218;2023-02-28T01:53:05;7.88;;;4.13;;
17844;SDS011;9047;53.486;10.218;2023-02-28T01:55:42;6.82;;;4.10;;
17844;SDS011;9047;53.486;10.218;2023-02-28T01:58:17;8.02;;;4.55;;
17844;SDS011;9047;53.486;10.218;2023-02-28T02:00:44;9.93;;;4.43;;
17844;SDS011;9047;53.486;10.218;2023-02-28T02:03:12;8.95;;;4.03;;
17844;SDS011;9047;53.486;10.218;2023-02-28T02:05:43;10.48;;;3.97;;
17844;SDS011;9047;53.486;10.218;2023-02-28T02:08:13;10.43;;;3.97;;
17844;SDS011;9047;53.486;10.218;2023-02-28T02:10:47;7.65;;;4.10;;
17844;SDS011;9047;53.486;10.218;2023-02-28T02:13:25;12.38;;;4.50;;
17844;SDS011;9047;53.486;10.218;2023-02-28T02:16:12;7.57;;;4.22;;
17844;SDS011;9047;53.486;10.218;2023-02-28T02:18:50;7.82;;;4.07;;
17844;SDS011;9047;53.486;10.218;2023-02-28T02:21:31;10.70;;;4.53;;
17844;SDS011;9047;53.486;10.218;2023-02-28T02:27:19;11.48;;;4.40;;
17844;SDS011;9047;53.486;10.218;2023-02-28T02:33:00;8.02;;;4.70;;
17844;SDS011;9047;53.486;10.218;2023-02-28T02:35:39;9.27;;;4.95;;
17844;SDS011;9047;53.486;10.218;2023-02-28T02:38:11;9.15;;;4.88;;
17844;SDS011;9047;53.486;10.218;2023-02-28T02:40:46;6.60;;;4.30;;
17844;SDS011;9047;53.486;10.218;2023-02-28T02:43:25;9.40;;;4.82;;
17844;SDS011;9047;53.486;10.218;2023-02-28T02:45:55;9.00;;;4.40;;
17844;SDS011;9047;53.486;10.218;2023-02-28T02:48:29;10.73;;;5.05;;
17844;SDS011;9047;53.486;10.218;2023-02-28T02:51:00;9.13;;;4.72;;
17844;SDS011;9047;53.486;10.218;2023-02-28T02:53:37;9.07;;;4.35;;
17844;SDS011;9047;53.486;10.218;2023-02-28T02:56:09;9.57;;;4.80;;
17844;SDS011;9047;53.486;10.218;2023-02-28T02:58:40;11.55;;;5.28;;
17844;SDS011;9047;53.486;10.218;2023-02-28T03:01:10;7.65;;;4.60;;
17844;SDS011;9047;53.486;10.218;2023-02-28T03:03:42;8.38;;;4.80;;
17844;SDS011;9047;53.486;10.218;2023-02-28T03:06:12;7.78;;;4.90;;
17844;SDS011;9047;53.486;10.218;2023-02-28T03:08:43;11.32;;;4.93;;
17844;SDS011;9047;53.486;10.218;2023-02-28T03:11:12;8.02;;;5.00;;
17844;SDS011;9047;53.486;10.218;2023-02-28T03:16:35;8.52;;;4.60;;
17844;SDS011;9047;53.486;10.218;2023-02-28T03:19:14;13.68;;;4.95;;
17844;SDS011;9047;53.486;10.218;2023-02-28T03:21:59;9.88;;;4.78;;
17844;SDS011;9047;53.486;10.218;2023-02-28T03:24:40;11.40;;;4.78;;
17844;SDS011;9047;53.486;10.218;2023-02-28T03:27:15;8.50;;;4.78;;
17844;SDS011;9047;53.486;10.218;2023-02-28T03:29:49;10.80;;;4.68;;
17844;SDS011;9047;53.486;10.218;2023-02-28T03:32:21;8.48;;;5.00;;
17844;SDS011;9047;53.486;10.218;2023-02-28T03:34:56;9.25;;;4.88;;
17844;SDS011;9047;53.486;10.218;2023-02-28T03:37:30;11.15;;;4.82;;
17844;SDS011;9047;53.486;10.218;2023-02-28T03:40:01;11.70;;;5.18;;
17844;SDS011;9047;53.486;10.218;2023-02-28T03:42:36;9.45;;;4.90;;
17844;SDS011;9047;53.486;10.218;2023-02-28T03:45:09;11.05;;;5.20;;
17844;SDS011;9047;53.486;10.218;2023-02-28T03:47:40;9.52;;;4.90;;
17844;SDS011;9047;53.486;10.218;2023-02-28T03:50:13;8.45;;;5.00;;
17844;SDS011;9047;53.486;10.218;2023-02-28T03:52:47;8.35;;;4.80;;
17844;SDS011;9047;53.486;10.218;2023-02-28T03:55:17;9.18;;;5.15;;
17844;SDS011;9047;53.486;10.218;2023-02-28T03:57:49;9.85;;;4.80;;
17844;SDS011;9047;53.486;10.218;2023-02-28T04:00:25;11.30;;;4.90;;
17844;SDS011;9047;53.486;10.218;2023-02-28T04:02:56;9.30;;;4.85;;
17844;SDS011;9047;53.486;10.218;2023-02-28T04:05:23;9.50;;;4.95;;
17844;SDS011;9047;53.486;10.218;2023-02-28T04:07:52;9.18;;;5.10;;
17844;SDS011;9047;53.486;10.218;2023-02-28T04:10:20;11.57;;;5.60;;
17844;SDS011;9047;53.486;10.218;2023-02-28T04:12:48;8.75;;;5.10;;
17844;SDS011;9047;53.486;10.218;2023-02-28T04:15:15;8.15;;;4.95;;
17844;SDS011;9047;53.486;10.218;2023-02-28T04:17:42;10.65;;;5.40;;
17844;SDS011;9047;53.486;10.218;2023-02-28T04:20:09;8.65;;;4.82;;
17844;SDS011;9047;53.486;10.218;2023-02-28T04:22:37;9.77;;;5.00;;
17844;SDS011;9047;53.486;10.218;2023-02-28T04:25:09;9.02;;;5.32;;
17844;SDS011;9047;53.486;10.218;2023-02-28T04:27:50;10.13;;;5.03;;
17844;SDS011;9047;53.486;10.218;2023-02-28T04:30:17;9.38;;;5.03;;
17844;SDS011;9047;53.486;10.218;2023-02-28T04:32:44;9.43;;;5.00;;
17844;SDS011;9047;53.486;10.218;2023-02-28T04:35:11;11.20;;;5.20;;
17844;SDS011;9047;53.486;10.218;2023-02-28T04:37:39;9.93;;;5.35;;
17844;SDS011;9047;53.486;10.218;2023-02-28T04:40:20;8.98;;;5.20;;
17844;SDS011;9047;53.486;10.218;2023-02-28T04:42:49;11.48;;;5.53;;
17844;SDS011;9047;53.486;10.218;2023-02-28T04:45:18;10.75;;;5.25;;
17844;SDS011;9047;53.486;10.218;2023-02-28T04:47:48;12.55;;;5.22;;
17844;SDS011;9047;53.486;10.218;2023-02-28T04:50:17;9.60;;;5.50;;
17844;SDS011;9047;53.486;10.218;2023-02-28T04:52:45;11.25;;;5.68;;
17844;SDS011;9047;53.486;10.218;2023-02-28T04:55:18;9.80;;;5.60;;
17844;SDS011;9047;53.486;10.218;2023-02-28T04:57:47;11.63;;;5.95;;
17844;SDS011;9047;53.486;10.218;2023-02-28T05:00:15;11.68;;;6.20;;
17844;SDS011;9047;53.486;10.218;2023-02-28T05:02:44;11.25;;;6.40;;
17844;SDS011;9047;53.486;10.218;2023-02-28T05:05:18;14.98;;;6.38;;
17844;SDS011;9047;53.486;10.218;2023-02-28T05:07:50;13.90;;;6.50;;
17844;SDS011;9047;53.486;10.218;2023-02-28T05:10:23;10.50;;;5.20;;
17844;SDS011;9047;53.486;10.218;2023-02-28T05:12:52;9.15;;;5.40;;
17844;SDS011;9047;53.486;10.218;2023-02-28T05:15:19;9.45;;;5.40;;
17844;SDS011;9047;53.486;10.218;2023-02-28T05:17:47;10.13;;;5.40;;
17844;SDS011;9047;53.486;10.218;2023-02-28T05:20:14;14.95;;;6.22;;
17844;SDS011;9047;53.486;10.218;2023-02-28T05:22:43;10.13;;;6.03;;
17844;SDS011;9047;53.486;10.218;2023-02-28T05:25:20;11.43;;;5.63;;
17844;SDS011;9047;53.486;10.218;2023-02-28T05:27:50;12.57;;;5.45;;
17844;SDS011;9047;53.486;10.218;2023-02-28T05:30:19;10.55;;;5.85;;
17844;SDS011;9047;53.486;10.218;2023-02-28T05:32:51;7.97;;;5.15;;
17844;SDS011;9047;53.486;10.218;2023-02-28T05:35:20;12.43;;;4.90;;
17844;SDS011;9047;53.486;10.218;2023-02-28T05:37:48;8.15;;;5.20;;
17844;SDS011;9047;53.486;10.218;2023-02-28T05:40:15;9.45;;;5.32;;
17844;SDS011;9047;53.486;10.218;2023-02-28T05:42:46;9.98;;;5.53;;
17844;SDS011;9047;53.486;10.218;2023-02-28T05:45:15;12.27;;;6.05;;
17844;SDS011;9047;53.486;10.218;2023-02-28T05:47:42;11.85;;;5.45;;
17844;SDS011;9047;53.486;10.218;2023-02-28T05:50:11;9.63;;;5.65;;
17844;SDS011;9047;53.486;10.218;2023-02-28T05:52:38;9.02;;;5.63;;
17844;SDS011;9047;53.486;10.218;2023-02-28T05:55:06;10.02;;;5.82;;
17844;SDS011;9047;53.486;10.218;2023-02-28T05:57:40;11.27;;;5.88;;
17844;SDS011;9047;53.486;10.218;2023-02-28T06:00:11;13.70;;;5.63;;
17844;SDS011;9047;53.486;10.218;2023-02-28T06:02:44;12.20;;;5.78;;
17844;SDS011;9047;53.486;10.218;2023-02-28T06:05:13;13.82;;;6.53;;
17844;SDS011;9047;53.486;10.218;2023-02-28T06:07:41;12.43;;;5.93;;
17844;SDS011;9047;53.486;10.218;2023-02-28T06:10:10;13.73;;;6.05;;
17844;SDS011;9047;53.486;10.218;2023-02-28T06:12:38;10.52;;;5.78;;
17844;SDS011;9047;53.486;10.218;2023-02-28T06:15:06;11.57;;;6.20;;
17844;SDS011;9047;53.486;10.218;2023-02-28T06:17:39;13.15;;;6.32;;
17844;SDS011;9047;53.486;10.218;2023-02-28T06:20:07;13.75;;;6.93;;
17844;SDS011;9047;53.486;10.218;2023-02-28T06:22:38;10.88;;;6.22;;
17844;SDS011;9047;53.486;10.218;2023-02-28T06:25:09;10.98;;;6.40;;
17844;SDS011;9047;53.486;10.218;2023-02-28T06:27:37;12.25;;;6.65;;
17844;SDS011;9047;53.486;10.218;2023-02-28T06:30:05;11.38;;;6.40;;
17844;SDS011;9047;53.486;10.218;2023-02-28T06:32:37;16.90;;;6.53;;
17844;SDS011;9047;53.486;10.218;2023-02-28T06:35:04;11.48;;;5.95;;
17844;SDS011;9047;53.486;10.218;2023-02-28T06:37:36;12.38;;;5.93;;
17844;SDS011;9047;53.486;10.218;2023-02-28T06:40:04;11.07;;;6.70;;
17844;SDS011;9047;53.486;10.218;2023-02-28T06:42:32;11.45;;;6.40;;
17844;SDS011;9047;53.486;10.218;2023-02-28T06:45:01;12.32;;;6.43;;
17844;SDS011;9047;53.486;10.218;2023-02-28T06:47:35;10.88;;;5.95;;
17844;SDS011;9047;53.486;10.218;2023-02-28T06:50:07;11.07;;;6.35;;
17844;SDS011;9047;53.486;10.218;2023-02-28T06:52:42;10.07;;;5.78;;
17844;SDS011;9047;53.486;10.218;2023-02-28T06:55:09;10.82;;;6.18;;
17844;SDS011;9047;53.486;10.218;2023-02-28T06:57:36;14.80;;;6.95;;
17844;SDS011;9047;53.486;10.218;2023-02-28T07:00:09;16.27;;;7.03;;
17844;SDS011;9047;53.486;10.218;2023-02-28T07:02:43;13.43;;;7.00;;
17844;SDS011;9047;53.486;10.218;2023-02-28T07:05:13;13.35;;;6.30;;
17844;SDS011;9047;53.486;10.218;2023-02-28T07:07:41;12.45;;;6.60;;
17844;SDS011;9047;53.486;10.218;2023-02-28T07:10:11;14.35;;;7.40;;
17844;SDS011;9047;53.486;10.218;2023-02-28T07:12:41;11.57;;;7.40;;
17844;SDS011;9047;53.486;10.218;2023-02-28T07:15:10;13.73;;;8.15;;
17844;SDS011;9047;53.486;10.218;2023-02-28T07:17:39;13.77;;;8.32;;
17844;SDS011;9047;53.486;10.218;2023-02-28T07:20:09;16.45;;;8.45;;
17844;SDS011;9047;53.486;10.218;2023-02-28T07:22:38;16.17;;;8.40;;
17844;SDS011;9047;53.486;10.218;2023-02-28T07:25:07;15.52;;;8.18;;
17844;SDS011;9047;53.486;10.218;2023-02-28T07:27:37;11.98;;;7.32;;
17844;SDS011;9047;53.486;10.218;2023-02-28T07:30:05;11.85;;;7.78;;
17844;SDS011;9047;53.486;10.218;2023-02-28T07:32:36;16.40;;;8.38;;
17844;SDS011;9047;53.486;10.218;2023-02-28T07:35:18;14.65;;;8.40;;
17844;SDS011;9047;53.486;10.218;2023-02-28T07:37:45;15.80;;;8.82;;
17844;SDS011;9047;53.486;10.218;2023-02-28T07:40:16;16.00;;;8.23;;
17844;SDS011;9047;53.486;10.218;2023-02-28T07:42:45;15.52;;;8.60;;
17844;SDS011;9047;53.486;10.218;2023-02-28T07:45:12;13.18;;;8.15;;
17844;SDS011;9047;53.486;10.218;2023-02-28T07:47:53;14.93;;;7.80;;
17844;SDS011;9047;53.486;10.218;2023-02-28T07:50:27;11.63;;;7.82;;
17844;SDS011;9047;53.486;10.218;2023-02-28T07:52:57;15.02;;;7.80;;
17844;SDS011;9047;53.486;10.218;2023-02-28T07:55:25;14.13;;;8.10;;
17844;SDS011;9047;53.486;10.218;2023-02-28T07:57:53;11.98;;;7.25;;
17844;SDS011;9047;53.486;10.218;2023-02-28T08:00:24;12.77;;;7.03;;
17844;SDS011;9047;53.486;10.218;2023-02-28T08:03:05;15.35;;;7.60;;
17844;SDS011;9047;53.486;10.218;2023-02-28T08:05:50;13.38;;;7.35;;
17844;SDS011;9047;53.486;10.218;2023-02-28T08:08:18;13.30;;;7.18;;
17844;SDS011;9047;53.486;10.218;2023-02-28T08:10:45;11.27;;;6.95;;
17844;SDS011;9047;53.486;10.218;2023-02-28T08:13:14;11.63;;;7.10;;
17844;SDS011;9047;53.486;10.218;2023-02-28T08:15:57;12.50;;;6.97;;
17844;SDS011;9047;53.486;10.218;2023-02-28T08:18:37;12.48;;;7.07;;
17844;SDS011;9047;53.486;10.218;2023-02-28T08:21:12;10.00;;;6.63;;
17844;SDS011;9047;53.486;10.218;2023-02-28T08:23:40;12.70;;;6.68;;
17844;SDS011;9047;53.486;10.218;2023-02-28T08:26:08;14.95;;;6.80;;
17844;SDS011;9047;53.486;10.218;2023-02-28T08:28:36;11.25;;;6.30;;
17844;SDS011;9047;53.486;10.218;2023-02-28T08:31:18;9.93;;;6.65;;
17844;SDS011;9047;53.486;10.218;2023-02-28T08:33:59;13.20;;;7.20;;
17844;SDS011;9047;53.486;10.218;2023-02-28T08:36:28;13.48;;;6.93;;
17844;SDS011;9047;53.486;10.218;2023-02-28T08:38:56;11.63;;;6.22;;
17844;SDS011;9047;53.486;10.218;2023-02-28T08:41:28;11.07;;;6.13;;
17844;SDS011;9047;53.486;10.218;2023-02-28T08:43:58;9.73;;;6.00;;
17844;SDS011;9047;53.486;10.218;2023-02-28T08:46:27;11.23;;;6.20;;
17844;SDS011;9047;53.486;10.218;2023-02-28T08:48:57;10.45;;;6.03;;
17844;SDS011;9047;53.486;10.218;2023-02-28T08:51:38;12.57;;;6.13;;
17844;SDS011;9047;53.486;10.218;2023-02-28T08:54:07;8.93;;;6.22;;
17844;SDS011;9047;53.486;10.218;2023-02-28T08:56:44;11.32;;;5.85;;
17844;SDS011;9047;53.486;10.218;2023-02-28T08:59:12;10.65;;;5.97;;
17844;SDS011;9047;53.486;10.218;2023-02-28T09:01:39;8.32;;;5.03;;
17844;SDS011;9047;53.486;10.218;2023-02-28T09:04:08;8.95;;;4.78;;
17844;SDS011;9047;53.486;10.218;2023-02-28T09:06:45;8.45;;;4.75;;
17844;SDS011;9047;53.486;10.218;2023-02-28T09:09:26;10.80;;;5.10;;
17844;SDS011;9047;53.486;10.218;2023-02-28T09:11:55;8.98;;;5.38;;
17844;SDS011;9047;53.486;10.218;2023-02-28T09:14:26;10.38;;;5.07;;
17844;SDS011;9047;53.486;10.218;2023-02-28T09:17:07;7.82;;;4.72;;
17844;SDS011;9047;53.486;10.218;2023-02-28T09:19:50;7.43;;;4.95;;
17844;SDS011;9047;53.486;10.218;2023-02-28T09:25:01;7.65;;;4.38;;
17844;SDS011;9047;53.486;10.218;2023-02-28T09:27:33;7.47;;;4.55;;
17844;SDS011;9047;53.486;10.218;2023-02-28T09:30:00;6.97;;;4.50;;
17844;SDS011;9047;53.486;10.218;2023-02-28T09:32:30;10.55;;;4.80;;
17844;SDS011;9047;53.486;10.218;2023-02-28T09:35:12;6.95;;;4.05;;
17844;SDS011;9047;53.486;10.218;2023-02-28T09:38:02;5.85;;;3.80;;
17844;SDS011;9047;53.486;10.218;2023-02-28T09:40:47;5.63;;;3.80;;
17844;SDS011;9047;53.486;10.218;2023-02-28T09:43:26;7.38;;;3.55;;
17844;SDS011;9047;53.486;10.218;2023-02-28T09:46:08;8.90;;;3.65;;
17844;SDS011;9047;53.486;10.218;2023-02-28T09:48:46;6.45;;;3.80;;
17844;SDS011;9047;53.486;10.218;2023-02-28T09:51:23;5.97;;;3.70;;
17844;SDS011;9047;53.486;10.218;2023-02-28T09:54:08;6.70;;;3.53;;
17844;SDS011;9047;53.486;10.218;2023-02-28T09:56:49;7.38;;;3.90;;
17844;SDS011;9047;53.486;10.218;2023-02-28T09:59:31;9.68;;;3.92;;
17844;SDS011;9047;53.486;10.218;2023-02-28T10:02:10;8.27;;;3.58;;
17844;SDS011;9047;53.486;10.218;2023-02-28T10:04:54;5.97;;;3.40;;
17844;SDS011;9047;53.486;10.218;2023-02-28T10:07:33;5.53;;;2.78;;
17844;SDS011;9047;53.486;10.218;2023-02-28T10:13:00;4.75;;;2.22;;
17844;SDS011;9047;53.486;10.218;2023-02-28T10:15:33;3.88;;;2.50;;
17844;SDS011;9047;53.486;10.218;2023-02-28T10:18:03;4.40;;;2.03;;
17844;SDS011;9047;53.486;10.218;2023-02-28T10:20:39;2.85;;;2.00;;
17844;SDS011;9047;53.486;10.218;2023-02-28T10:23:19;3.58;;;1.85;;
17844;SDS011;9047;53.486;10.218;2023-02-28T10:25:53;3.38;;;2.00;;
17844;SDS011;9047;53.486;10.218;2023-02-28T10:28:25;3.28;;;1.40;;
17844;SDS011;9047;53.486;10.218;2023-02-28T10:30:59;3.97;;;1.30;;
17844;SDS011;9047;53.486;10.218;2023-02-28T10:33:28;2.50;;;1.38;;
17844;SDS011;9047;53.486;10.218;2023-02-28T10:35:59;2.88;;;1.20;;
17844;SDS011;9047;53.486;10.218;2023-02-28T10:38:28;2.05;;;1.20;;
17844;SDS011;9047;53.486;10.218;2023-02-28T10:41:06;3.38;;;1.05;;
17844;SDS011;9047;53.486;10.218;2023-02-28T10:43:37;4.35;;;1.40;;
17844;SDS011;9047;53.486;10.218;2023-02-28T10:46:09;1.83;;;1.02;;
17844;SDS011;9047;53.486;10.218;2023-02-28T10:48:50;2.80;;;1.20;;
17844;SDS011;9047;53.486;10.218;2023-02-28T10:51:34;1.83;;;1.20;;
17844;SDS011;9047;53.486;10.218;2023-02-28T10:54:03;2.65;;;1.08;;
17844;SDS011;9047;53.486;10.218;2023-02-28T10:56:34;2.38;;;1.30;;
17844;SDS011;9047;53.486;10.218;2023-02-28T10:59:02;3.30;;;1.52;;
17844;SDS011;9047;53.486;10.218;2023-02-28T11:01:47;4.50;;;1.75;;
17844;SDS011;9047;53.486;10.218;2023-02-28T11:04:18;2.42;;;1.30;;
17844;SDS011;9047;53.486;10.218;2023-02-28T11:07:00;3.38;;;1.48;;
17844;SDS011;9047;53.486;10.218;2023-02-28T11:09:30;3.15;;;1.50;;
17844;SDS011;9047;53.486;10.218;2023-02-28T11:12:06;2.72;;;1.33;;
17844;SDS011;9047;53.486;10.218;2023-02-28T11:14:48;4.47;;;1.65;;
17844;SDS011;9047;53.486;10.218;2023-02-28T11:17:21;3.70;;;1.60;;
17844;SDS011;9047;53.486;10.218;2023-02-28T11:19:56;4.13;;;1.48;;
17844;SDS011;9047;53.486;10.218;2023-02-28T11:22:29;3.50;;;1.50;;
17844;SDS011;9047;53.486;10.218;2023-02-28T11:25:06;4.03;;;1.50;;
17844;SDS011;9047;53.486;10.218;2023-02-28T11:27:59;1.98;;;1.33;;
17844;SDS011;9047;53.486;10.218;2023-02-28T11:30:38;2.85;;;1.58;;
17844;SDS011;9047;53.486;10.218;2023-02-28T11:33:23;5.82;;;1.38;;
17844;SDS011;9047;53.486;10.218;2023-02-28T11:35:53;3.08;;;1.40;;
17844;SDS011;9047;53.486;10.218;2023-02-28T11:38:25;3.08;;;1.63;;
17844;SDS011;9047;53.486;10.218;2023-02-28T11:41:03;5.10;;;1.63;;
17844;SDS011;9047;53.486;10.218;2023-02-28T11:43:53;2.00;;;1.50;;
17844;SDS011;9047;53.486;10.218;2023-02-28T11:47:06;3.28;;;1.58;;
17844;SDS011;9047;53.486;10.218;2023-02-28T11:49:41;2.33;;;1.33;;
17844;SDS011;9047;53.486;10.218;2023-02-28T11:52:20;2.47;;;1.33;;
17844;SDS011;9047;53.486;10.218;2023-02-28T11:54:59;2.13;;;1.33;;
17844;SDS011;9047;53.486;10.218;2023-02-28T11:57:36;3.33;;;1.38;;
17844;SDS011;9047;53.486;10.218;2023-02-28T12:00:19;3.45;;;1.70;;
17844;SDS011;9047;53.486;10.218;2023-02-28T12:03:00;4.10;;;1.65;;
17844;SDS011;9047;53.486;10.218;2023-02-28T12:05:37;2.88;;;1.60;;
17844;SDS011;9047;53.486;10.218;2023-02-28T12:08:15;4.07;;;1.50;;
17844;SDS011;9047;53.486;10.218;2023-02-28T12:10:57;2.90;;;1.70;;
17844;SDS011;9047;53.486;10.218;2023-02-28T12:13:36;4.35;;;1.35;;
17844;SDS011;9047;53.486;10.218;2023-02-28T12:19:34;2.75;;;1.40;;
17844;SDS011;9047;53.486;10.218;2023-02-28T12:27:49;2.95;;;1.45;;
17844;SDS011;9047;53.486;10.218;2023-02-28T12:30:19;2.15;;;1.40;;
17844;SDS011;9047;53.486;10.218;2023-02-28T12:32:52;5.38;;;1.60;;
17844;SDS011;9047;53.486;10.218;2023-02-28T12:35:32;2.75;;;1.50;;
17844;SDS011;9047;53.486;10.218;2023-02-28T12:38:03;1.98;;;1.52;;
17844;SDS011;9047;53.486;10.218;2023-02-28T12:40:42;3.22;;;1.60;;
17844;SDS011;9047;53.486;10.218;2023-02-28T12:43:16;3.45;;;1.60;;
17844;SDS011;9047;53.486;10.218;2023-02-28T12:45:56;3.05;;;1.63;;
17844;SDS011;9047;53.486;10.218;2023-02-28T12:48:31;3.65;;;1.75;;
17844;SDS011;9047;53.486;10.218;2023-02-28T12:51:06;3.95;;;1.80;;
17844;SDS011;9047;53.486;10.218;2023-02-28T12:53:43;4.18;;;1.50;;
17844;SDS011;9047;53.486;10.218;2023-02-28T12:56:19;4.22;;;1.80;;
17844;SDS011;9047;53.486;10.218;2023-02-28T12:58:57;3.88;;;2.17;;
17844;SDS011;9047;53.486;10.218;2023-02-28T13:01:35;3.47;;;1.80;;
17844;SDS011;9047;53.486;10.218;2023-02-28T13:10:40;3.25;;;1.70;;
17844;SDS011;9047;53.486;10.218;2023-02-28T13:13:13;3.80;;;1.83;;
17844;SDS011;9047;53.486;10.218;2023-02-28T13:15:56;4.00;;;1.83;;
17844;SDS011;9047;53.486;10.218;2023-02-28T13:18:32;4.72;;;1.73;;
17844;SDS011;9047;53.486;10.218;2023-02-28T13:21:04;2.17;;;1.70;;
17844;SDS011;9047;53.486;10.218;2023-02-28T13:23:56;3.15;;;1.80;;
17844;SDS011;9047;53.486;10.218;2023-02-28T13:29:31;2.97;;;1.48;;
17844;SDS011;9047;53.486;10.218;2023-02-28T13:38:12;3.33;;;1.73;;
17844;SDS011;9047;53.486;10.218;2023-02-28T13:40:46;11.88;;;5.40;;
17844;SDS011;9047;53.486;10.218;2023-02-28T13:43:14;5.88;;;1.83;;
17844;SDS011;9047;53.486;10.218;2023-02-28T13:48:34;2.92;;;1.88;;
17844;SDS011;9047;53.486;10.218;2023-02-28T13:57:15;2.80;;;1.60;;
17844;SDS011;9047;53.486;10.218;2023-02-28T13:59:59;3.28;;;1.60;;
17844;SDS011;9047;53.486;10.218;2023-02-28T14:02:45;4.53;;;1.60;;
17844;SDS011;9047;53.486;10.218;2023-02-28T14:05:35;2.80;;;1.60;;
17844;SDS011;9047;53.486;10.218;2023-02-28T14:08:04;2.80;;;1.63;;
17844;SDS011;9047;53.486;10.218;2023-02-28T14:10:41;3.83;;;1.92;;
17844;SDS011;9047;53.486;10.218;2023-02-28T14:13:36;6.32;;;2.22;;
17844;SDS011;9047;53.486;10.218;2023-02-28T14:16:12;3.05;;;1.60;;
17844;SDS011;9047;53.486;10.218;2023-02-28T14:18:41;2.80;;;1.90;;
17844;SDS011;9047;53.486;10.218;2023-02-28T14:21:21;7.25;;;1.80;;
17844;SDS011;9047;53.486;10.218;2023-02-28T14:24:09;2.10;;;1.58;;
17844;SDS011;9047;53.486;10.218;2023-02-28T14:29:59;2.97;;;1.73;;
17844;SDS011;9047;53.486;10.218;2023-02-28T14:32:43;4.57;;;1.77;;
17844;SDS011;9047;53.486;10.218;2023-02-28T14:35:29;4.75;;;1.70;;
17844;SDS011;9047;53.486;10.218;2023-02-28T14:38:13;5.75;;;2.22;;
17844;SDS011;9047;53.486;10.218;2023-02-28T14:40:49;3.10;;;1.70;;
17844;SDS011;9047;53.486;10.218;2023-02-28T14:43:22;4.22;;;1.73;;
17844;SDS011;9047;53.486;10.218;2023-02-28T14:45:51;5.07;;;1.70;;
17844;SDS011;9047;53.486;10.218;2023-02-28T14:48:25;5.47;;;1.73;;
17844;SDS011;9047;53.486;10.218;2023-02-28T14:50:55;3.50;;;1.73;;
17844;SDS011;9047;53.486;10.218;2023-02-28T14:53:27;4.05;;;1.70;;
17844;SDS011;9047;53.486;10.218;2023-02-28T14:55:57;4.55;;;1.60;;
17844;SDS011;9047;53.486;10.218;2023-02-28T14:58:27;3.17;;;1.70;;
17844;SDS011;9047;53.486;10.218;2023-02-28T15:00:56;2.55;;;1.63;;
17844;SDS011;9047;53.486;10.218;2023-02-28T15:03:32;3.95;;;1.80;;
17844;SDS011;9047;53.486;10.218;2023-02-28T15:06:03;3.38;;;1.77;;
17844;SDS011;9047;53.486;10.218;2023-02-28T15:08:32;4.82;;;1.63;;
17844;SDS011;9047;53.486;10.218;2023-02-28T15:11:01;5.20;;;1.60;;
17844;SDS011;9047;53.486;10.218;2023-02-28T15:13:36;2.78;;;1.60;;
17844;SDS011;9047;53.486;10.218;2023-02-28T15:16:08;2.08;;;1.55;;
17844;SDS011;9047;53.486;10.218;2023-02-28T15:18:43;3.88;;;1.65;;
17844;SDS011;9047;53.486;10.218;2023-02-28T15:21:15;2.78;;;1.67;;
17844;SDS011;9047;53.486;10.218;2023-02-28T15:23:48;3.30;;;1.70;;
17844;SDS011;9047;53.486;10.218;2023-02-28T15:26:19;2.78;;;1.80;;
17844;SDS011;9047;53.486;10.218;2023-02-28T15:28:49;2.50;;;1.60;;
17844;SDS011;9047;53.486;10.218;2023-02-28T15:31:20;3.90;;;1.65;;
17844;SDS011;9047;53.486;10.218;2023-02-28T15:33:55;2.50;;;1.73;;
17844;SDS011;9047;53.486;10.218;2023-02-28T15:36:24;3.35;;;1.55;;
17844;SDS011;9047;53.486;10.218;2023-02-28T15:38:54;2.47;;;1.77;;
17844;SDS011;9047;53.486;10.218;2023-02-28T15:41:24;4.28;;;1.90;;
17844;SDS011;9047;53.486;10.218;2023-02-28T15:46:41;2.80;;;1.80;;
17844;SDS011;9047;53.486;10.218;2023-02-28T15:49:23;2.63;;;1.67;;
17844;SDS011;9047;53.486;10.218;2023-02-28T15:51:56;5.70;;;2.00;;
17844;SDS011;9047;53.486;10.218;2023-02-28T15:54:28;2.55;;;1.77;;
17844;SDS011;9047;53.486;10.218;2023-02-28T15:57:01;3.72;;;2.20;;
17844;SDS011;9047;53.486;10.218;2023-02-28T15:59:35;6.22;;;1.98;;
17844;SDS011;9047;53.486;10.218;2023-02-28T16:02:20;2.85;;;2.00;;
17844;SDS011;9047;53.486;10.218;2023-02-28T16:05:01;3.90;;;1.95;;
17844;SDS011;9047;53.486;10.218;2023-02-28T16:07:53;4.68;;;2.28;;
17844;SDS011;9047;53.486;10.218;2023-02-28T16:10:21;2.53;;;1.70;;
17844;SDS011;9047;53.486;10.218;2023-02-28T16:12:52;4.13;;;1.77;;